St Louis Regional Airport
KALN : now visible

Airfield :











YOU CAN JOIN US ON...

 
LOGIN :

Register | Disclaimer

   EN    FR    IT 

 









Legend :    VFR   Marginal VFR   IFR   Intensive IFR   Very Intensive IFR
Visi :
Ceiling :
>= 8 km
>= 3000ft
5 to 8 km
1000 to 3000 ft
1500m to 5 km
500 to 1000 ft
800 to 1500m
200 to 500 ft
< 800m
< 200 ft
Symbols :   Thunderstorms  Fog  Heavy snow  Heavy precipitations  Wind > 20 kt






- Airport Elevation : 544 ft


KALN - St Louis Regional

CURRENT METAR :
  • 300855Z AUTO 00000KT 10SM CLR 06/06 A3025 RMK AO2 T00620060

EXPIRED METARs :
  • 300835Z AUTO 00000KT 10SM CLR 05/05 A3026 RMK AO2 T00520050
  • 300815Z AUTO 00000KT 10SM CLR 05/05 A3026 RMK AO2 T00520050
  • 300755Z AUTO 00000KT 10SM CLR 06/06 A3026 RMK AO2 T00590056
  • 300735Z AUTO 00000KT 10SM CLR 06/05 A3026 RMK AO2 T00560054
  • 300715Z AUTO 00000KT 10SM CLR 05/05 A3026 RMK AO2 T00540051
  • 300655Z AUTO 00000KT 10SM CLR 06/05 A3026 RMK AO2 T00560053
  • 300635Z AUTO 00000KT 10SM CLR 06/05 A3027 RMK AO2 T00560054
  • 300615Z AUTO 00000KT 10SM CLR 06/06 A3027 RMK AO2 T00580056
  • 300555Z AUTO 00000KT 10SM CLR 07/06 A3027 RMK AO2 T00660061 10150 20063 402070042

TAF N/A
KZKC FIR / North America



MET'MAP, your aeronautical weather chart ! - Copyright ORBIFLY December 2007 - Disclaimer

ORBIFLY MET'MAP TEAM :

Programming & Development : Alexandra Zaïnal
Original concept : Baudouin d'Aumeries
Technical & hardware support : Manuel Goepfert
Assistance : Marc-Olivier Méhu




SOURCES & CREDITS :

   NOAA       Earth
Advisory